createdAt,value
2018-11-02T00:01:57.021Z,54.90
2018-11-02T00:04:31.288Z,54.50
2018-11-02T00:07:04.789Z,54.90
2018-11-02T00:12:11.487Z,54.80
2018-11-02T00:14:45.287Z,55.00
2018-11-02T00:17:18.856Z,55.00
2018-11-02T00:19:52.840Z,54.90
2018-11-02T00:27:32.770Z,54.10
2018-11-02T00:35:12.610Z,54.00
2018-11-02T00:37:46.038Z,54.70
2018-11-02T00:40:19.794Z,54.90
2018-11-02T00:42:53.484Z,55.00
2018-11-02T00:45:27.286Z,54.60
2018-11-02T00:48:00.802Z,55.00
2018-11-02T00:50:34.521Z,55.70
2018-11-02T00:53:08.584Z,54.60
2018-11-02T00:55:42.283Z,55.00
2018-11-02T00:58:15.731Z,55.00
2018-11-02T01:00:49.353Z,55.00
2018-11-02T01:03:22.968Z,55.00
2018-11-02T01:05:56.609Z,55.00
2018-11-02T01:08:30.289Z,55.00
2018-11-02T01:11:03.769Z,54.90
2018-11-02T01:18:44.384Z,54.10
2018-11-02T01:21:17.977Z,54.70
2018-11-02T01:23:51.633Z,54.90
2018-11-02T01:26:25.708Z,54.90
2018-11-02T01:28:59.659Z,54.90
2018-11-02T01:31:33.327Z,55.00
2018-11-02T01:34:07.566Z,54.90
2018-11-02T01:36:41.357Z,54.90
2018-11-02T01:39:15.017Z,55.00
2018-11-02T01:41:48.589Z,54.80
2018-11-02T01:44:22.459Z,55.00
2018-11-02T01:46:55.788Z,54.90
2018-11-02T01:49:30.057Z,54.90
2018-11-02T01:52:03.553Z,54.40
2018-11-02T01:54:37.056Z,54.90
2018-11-02T01:57:11.287Z,54.90
2018-11-02T01:59:44.770Z,54.90
2018-11-02T02:02:18.476Z,54.80
2018-11-02T02:04:52.272Z,55.10
2018-11-02T02:07:25.786Z,54.80
2018-11-02T02:09:59.541Z,54.80
2018-11-02T02:12:33.502Z,54.50
2018-11-02T02:15:08.279Z,54.80
2018-11-02T02:17:42.052Z,54.80
2018-11-02T02:20:15.871Z,55.60
2018-11-02T02:22:49.598Z,54.90
2018-11-02T02:25:23.325Z,54.60
2018-11-02T02:27:58.372Z,54.80
2018-11-02T02:30:32.377Z,54.90
2018-11-02T02:33:05.837Z,55.00
2018-11-02T02:35:39.610Z,54.80
2018-11-02T02:38:13.270Z,54.50
2018-11-02T02:40:47.374Z,54.90
2018-11-02T02:43:21.411Z,55.00
2018-11-02T02:45:55.057Z,54.80
2018-11-02T02:48:29.380Z,54.80
2018-11-02T02:51:02.859Z,54.80
2018-11-02T02:53:36.535Z,54.80
2018-11-02T02:56:10.580Z,54.40
2018-11-02T02:58:44.273Z,54.80
2018-11-02T03:01:17.808Z,54.90
2018-11-02T03:08:57.613Z,53.90
2018-11-02T03:11:31.283Z,54.80
2018-11-02T03:14:05.291Z,54.80
2018-11-02T03:16:38.790Z,55.00
2018-11-02T03:19:12.508Z,54.90
2018-11-02T03:21:46.524Z,54.60
2018-11-02T03:24:20.269Z,54.90
2018-11-02T03:26:54.368Z,55.00
2018-11-02T03:29:28.296Z,55.00
2018-11-02T03:32:01.819Z,54.80
2018-11-02T03:34:35.571Z,54.90
2018-11-02T03:37:09.319Z,54.60
2018-11-02T03:39:42.768Z,54.90
2018-11-02T03:42:16.557Z,54.80
2018-11-02T03:44:50.290Z,54.50
2018-11-02T03:47:23.793Z,54.90
2018-11-02T03:49:57.518Z,54.80
2018-11-02T03:52:32.278Z,54.50
2018-11-02T03:55:06.348Z,54.80
2018-11-02T03:57:40.434Z,54.90
2018-11-02T04:00:14.459Z,54.90
2018-11-02T04:02:47.798Z,54.80
2018-11-02T04:05:21.786Z,54.90
2018-11-02T04:07:55.607Z,54.40
2018-11-02T04:10:29.273Z,54.50
2018-11-02T04:13:02.802Z,54.80
2018-11-02T04:20:42.291Z,53.90
2018-11-02T04:23:15.805Z,54.60
2018-11-02T04:30:55.345Z,54.00
2018-11-02T04:33:28.797Z,54.70
2018-11-02T04:36:02.497Z,54.80
2018-11-02T04:38:36.291Z,54.40
2018-11-02T04:41:09.782Z,55.60
2018-11-02T04:43:43.601Z,55.00
2018-11-02T04:46:17.077Z,54.60
2018-11-02T04:48:50.585Z,55.10
2018-11-02T04:51:24.272Z,55.10
2018-11-02T04:53:57.789Z,55.00
2018-11-02T04:56:31.581Z,55.00
2018-11-02T04:59:05.380Z,54.60
2018-11-02T05:01:39.443Z,55.00
2018-11-02T05:04:13.052Z,55.10
2018-11-02T05:06:46.656Z,55.00
2018-11-02T05:09:20.267Z,55.00
2018-11-02T05:11:53.778Z,55.00
2018-11-02T05:14:27.545Z,55.60
2018-11-02T05:17:01.287Z,54.60
2018-11-02T05:19:35.495Z,54.90
2018-11-02T05:22:09.474Z,55.00
2018-11-02T05:24:42.800Z,55.00
2018-11-02T05:27:16.680Z,55.00
2018-11-02T05:29:50.289Z,54.60
2018-11-02T05:32:23.809Z,55.10
2018-11-02T05:34:58.273Z,55.00
2018-11-02T05:37:32.287Z,54.60
2018-11-02T05:40:05.811Z,55.10
2018-11-02T05:42:39.532Z,55.00
2018-11-02T05:45:13.278Z,54.70
2018-11-02T05:47:47.384Z,55.10
2018-11-02T05:50:21.065Z,55.10
2018-11-02T05:52:54.596Z,55.10
2018-11-02T05:55:28.292Z,55.10
2018-11-02T05:58:02.525Z,55.10
2018-11-02T06:00:36.459Z,55.00
2018-11-02T06:03:10.064Z,55.00
2018-11-02T06:05:43.605Z,55.00
2018-11-02T06:08:17.556Z,55.10
2018-11-02T06:10:51.291Z,55.10
2018-11-02T06:13:24.848Z,55.10
2018-11-02T06:21:03.822Z,54.10
2018-11-02T06:23:37.604Z,54.90
2018-11-02T06:26:11.368Z,54.60
2018-11-02T06:28:44.811Z,55.00
2018-11-02T06:31:18.444Z,55.00
2018-11-02T06:33:51.813Z,54.60
2018-11-02T06:36:25.514Z,55.00
2018-11-02T06:38:59.346Z,54.70
2018-11-02T06:41:32.723Z,55.00
2018-11-02T06:44:06.367Z,55.10
2018-11-02T06:46:40.400Z,55.00
2018-11-02T06:49:15.392Z,55.00
2018-11-02T06:51:48.782Z,55.00
2018-11-02T06:59:28.120Z,54.10
2018-11-02T07:02:02.396Z,54.80
2018-11-02T07:04:36.412Z,54.50
2018-11-02T07:07:10.314Z,54.90
2018-11-02T07:09:43.756Z,55.00
2018-11-02T07:12:17.539Z,54.90
2018-11-02T07:14:51.597Z,55.60
2018-11-02T07:17:25.304Z,54.90
2018-11-02T07:19:59.103Z,55.00
2018-11-02T07:22:33.292Z,55.00
2018-11-02T07:25:07.316Z,55.00
2018-11-02T07:27:40.824Z,55.00
2018-11-02T07:30:14.753Z,55.00
2018-11-02T07:32:48.480Z,54.60
2018-11-02T07:35:22.616Z,55.10
2018-11-02T07:37:56.745Z,54.90
2018-11-02T07:40:30.771Z,55.00
2018-11-02T07:43:04.565Z,55.00
2018-11-02T07:45:38.284Z,55.20
2018-11-02T07:48:11.819Z,55.10
2018-11-02T07:53:18.070Z,54.70
2018-11-02T07:55:51.791Z,54.80
2018-11-02T07:58:25.502Z,54.80
2018-11-02T08:00:59.362Z,54.40
2018-11-02T08:03:33.447Z,54.70
2018-11-02T08:06:07.068Z,54.70
2018-11-02T08:08:41.069Z,54.70
2018-11-02T08:11:14.655Z,54.70
2018-11-02T08:13:48.311Z,54.70
2018-11-02T08:16:21.776Z,54.70
2018-11-02T08:18:55.601Z,54.70
2018-11-02T08:21:29.300Z,54.70
2018-11-02T08:24:02.909Z,54.60
2018-11-02T08:26:35.419Z,54.80
2018-11-02T08:29:09.290Z,54.30
2018-11-02T08:31:42.829Z,54.60
2018-11-02T08:34:16.592Z,54.50
2018-11-02T08:36:54.054Z,54.30
2018-11-02T08:39:28.279Z,54.40
2018-11-02T08:42:01.754Z,54.40
2018-11-02T08:44:35.886Z,54.40
2018-11-02T08:47:09.553Z,54.30
2018-11-02T08:49:43.054Z,54.40
2018-11-02T08:52:16.839Z,54.40
2018-11-02T08:54:50.785Z,54.40
2018-11-02T08:57:24.459Z,54.50
2018-11-02T08:59:58.310Z,54.20
2018-11-02T09:02:31.879Z,54.40
2018-11-02T09:05:05.857Z,54.40
2018-11-02T09:07:40.294Z,54.00
2018-11-02T09:10:14.584Z,54.30
2018-11-02T09:12:48.297Z,54.30
2018-11-02T09:15:21.804Z,54.30
2018-11-02T09:17:56.332Z,54.30
2018-11-02T09:20:30.068Z,53.90
2018-11-02T09:23:03.629Z,54.20
2018-11-02T09:25:37.085Z,54.20
2018-11-02T09:28:10.661Z,54.20
2018-11-02T09:30:44.084Z,54.70
2018-11-02T09:33:17.575Z,54.20
2018-11-02T09:35:51.302Z,54.00
2018-11-02T09:38:25.497Z,54.00
2018-11-02T09:40:58.807Z,54.00
2018-11-02T09:43:32.567Z,54.10
2018-11-02T09:46:06.291Z,53.80
2018-11-02T09:48:39.756Z,54.00
2018-11-02T09:51:13.424Z,54.00
2018-11-02T09:53:46.789Z,54.80
2018-11-02T09:56:20.601Z,54.00
2018-11-02T09:58:54.286Z,53.60
2018-11-02T10:01:27.827Z,54.00
2018-11-02T10:04:01.568Z,54.00
2018-11-02T10:06:35.348Z,53.60
2018-11-02T10:09:12.978Z,54.00
2018-11-02T10:11:46.516Z,54.00
2018-11-02T10:14:20.292Z,53.60
2018-11-02T10:16:53.846Z,53.90
2018-11-02T10:19:28.681Z,53.70
2018-11-02T10:22:02.289Z,53.30
2018-11-02T10:24:36.299Z,53.70
2018-11-02T10:27:10.390Z,53.70
2018-11-02T10:29:44.340Z,53.70
2018-11-02T10:32:17.791Z,53.70
2018-11-02T10:34:51.599Z,53.70
2018-11-02T10:37:25.344Z,53.30
2018-11-02T10:39:58.801Z,53.60
2018-11-02T10:42:32.521Z,53.60
2018-11-02T10:45:06.619Z,53.00
2018-11-02T10:47:40.292Z,53.40
2018-11-02T10:50:13.821Z,53.40
2018-11-02T10:52:47.554Z,53.30
2018-11-02T10:55:21.279Z,52.90
2018-11-02T10:57:54.824Z,53.20
2018-11-02T11:00:45.938Z,53.80
2018-11-02T11:03:18.339Z,52.80
2018-11-02T11:05:51.839Z,52.70
2018-11-02T11:08:25.600Z,52.90
2018-11-02T11:10:59.310Z,52.60
2018-11-02T11:13:33.058Z,52.90
2018-11-02T11:16:06.387Z,52.90
2018-11-02T11:18:40.596Z,52.80
2018-11-02T11:21:14.505Z,52.80
2018-11-02T11:23:47.979Z,52.70
2018-11-02T11:26:21.556Z,52.70
2018-11-02T11:28:55.600Z,52.70
2018-11-02T11:31:29.295Z,52.80
2018-11-02T11:34:02.757Z,52.70
2018-11-02T11:36:36.457Z,52.60
2018-11-02T11:39:15.300Z,52.60
2018-11-02T11:41:48.772Z,52.50
2018-11-02T11:44:22.519Z,52.30
2018-11-02T11:46:56.297Z,51.70
2018-11-02T11:49:29.742Z,52.00
2018-11-02T11:52:03.405Z,51.80
2018-11-02T11:54:38.154Z,51.60
2018-11-02T11:57:12.367Z,51.80
2018-11-02T11:59:46.295Z,51.80
2018-11-02T12:02:20.481Z,51.80
2018-11-02T12:04:54.423Z,52.00
2018-11-02T12:07:28.300Z,51.80
2018-11-02T12:10:01.885Z,51.80
2018-11-02T12:12:35.618Z,51.70
2018-11-02T12:15:11.286Z,51.30
2018-11-02T12:17:45.596Z,51.70
2018-11-02T12:20:22.397Z,51.70
2018-11-02T12:22:58.740Z,51.70
2018-11-02T12:25:32.287Z,51.70
2018-11-02T12:28:05.808Z,51.80
2018-11-02T12:35:45.064Z,51.10
2018-11-02T12:38:18.740Z,51.90
2018-11-02T12:40:52.385Z,52.00
2018-11-02T12:43:26.306Z,52.00
2018-11-02T12:45:59.783Z,52.00
2018-11-02T12:48:33.757Z,52.10
2018-11-02T12:51:07.305Z,51.60
2018-11-02T12:53:41.554Z,51.80
2018-11-02T12:56:15.282Z,51.60
2018-11-02T12:58:49.359Z,51.60
2018-11-02T13:01:22.884Z,51.50
2018-11-02T13:03:55.259Z,51.50
2018-11-02T13:06:28.778Z,50.90
2018-11-02T13:09:02.993Z,50.80
2018-11-02T13:11:36.779Z,51.00
2018-11-02T13:14:10.553Z,50.20
2018-11-02T13:16:44.381Z,50.20
2018-11-02T13:19:17.795Z,50.20
2018-11-02T13:21:51.656Z,50.00
2018-11-02T13:24:25.286Z,49.80
2018-11-02T13:26:58.788Z,50.50
2018-11-02T13:29:32.546Z,50.50
2018-11-02T13:32:06.291Z,50.30
2018-11-02T13:34:39.700Z,50.90
2018-11-02T13:37:13.674Z,50.80
2018-11-02T13:39:47.314Z,50.80
2018-11-02T13:42:21.175Z,50.70
2018-11-02T13:44:55.282Z,50.60
2018-11-02T13:47:28.760Z,50.50
2018-11-02T13:50:02.362Z,50.40
2018-11-02T13:52:35.819Z,50.40
2018-11-02T13:55:10.950Z,50.30
2018-11-02T13:57:45.272Z,49.80
2018-11-02T14:00:19.827Z,50.10
2018-11-02T14:02:53.536Z,50.20
2018-11-02T14:05:27.062Z,49.80
2018-11-02T14:08:00.628Z,50.20
2018-11-02T14:10:35.358Z,50.40
2018-11-02T14:13:09.725Z,50.40
2018-11-02T14:15:43.548Z,50.50
2018-11-02T14:18:17.333Z,50.90
2018-11-02T14:20:50.756Z,51.10
2018-11-02T14:23:24.513Z,51.10
2018-11-02T14:25:58.087Z,51.10
2018-11-02T14:28:31.614Z,51.60
2018-11-02T14:31:05.049Z,51.70
2018-11-02T14:33:38.596Z,51.80
2018-11-02T14:36:12.337Z,51.90
2018-11-02T14:38:46.499Z,52.00
2018-11-02T14:41:20.487Z,52.20
2018-11-02T14:43:54.058Z,52.10
2018-11-02T14:46:27.608Z,52.30
2018-11-02T14:49:01.292Z,52.50
2018-11-02T14:51:35.004Z,52.60
2018-11-02T14:54:08.605Z,52.60
2018-11-02T14:56:42.286Z,52.80
2018-11-02T14:59:15.805Z,52.80
2018-11-02T15:01:49.520Z,52.90
2018-11-02T15:04:22.989Z,52.50
2018-11-02T15:06:57.664Z,53.00
2018-11-02T15:09:31.361Z,53.80
2018-11-02T15:12:05.292Z,53.10
2018-11-02T15:14:38.805Z,53.30
2018-11-02T15:17:13.054Z,53.20
2018-11-02T15:19:46.982Z,53.00
2018-11-02T15:22:20.570Z,53.40
2018-11-02T15:24:54.074Z,53.50
2018-11-02T15:27:27.641Z,53.60
2018-11-02T15:30:02.004Z,53.70
2018-11-02T15:32:36.056Z,53.80
2018-11-02T15:35:11.271Z,53.90
2018-11-02T15:37:46.279Z,53.80
2018-11-02T15:40:19.840Z,54.00
2018-11-02T15:45:26.382Z,54.00
2018-11-02T15:48:00.060Z,54.20
2018-11-02T15:50:33.607Z,54.20
2018-11-02T15:53:07.328Z,54.30
2018-11-02T15:55:40.813Z,54.40
2018-11-02T16:03:20.057Z,53.70
2018-11-02T16:05:54.336Z,54.40
2018-11-02T16:08:27.791Z,54.50
2018-11-02T16:11:01.535Z,54.90
2018-11-02T16:13:35.344Z,54.30
2018-11-02T16:16:09.590Z,54.70
2018-11-02T16:18:43.348Z,54.80
2018-11-02T16:21:17.396Z,54.80
2018-11-02T16:23:51.281Z,54.90
2018-11-02T16:26:24.746Z,55.00
2018-11-02T16:28:58.948Z,55.00
2018-11-02T16:31:32.610Z,54.90
2018-11-02T16:34:06.366Z,55.00
2018-11-02T16:36:39.764Z,55.00
2018-11-02T16:39:17.283Z,55.10
2018-11-02T16:41:50.776Z,55.40
2018-11-02T16:46:57.513Z,55.10
2018-11-02T16:49:31.626Z,55.20
2018-11-02T16:52:05.483Z,55.20
2018-11-02T16:54:38.906Z,55.30
2018-11-02T16:57:12.539Z,55.20
2018-11-02T16:59:46.273Z,54.90
2018-11-02T17:02:20.008Z,55.30
2018-11-02T17:04:53.653Z,55.30
2018-11-02T17:07:27.485Z,55.40
2018-11-02T17:10:01.519Z,55.50
2018-11-02T17:12:35.275Z,55.40
2018-11-02T17:15:09.563Z,55.50
2018-11-02T17:17:43.281Z,55.60
2018-11-02T17:20:18.332Z,55.60
2018-11-02T17:22:52.280Z,55.50
2018-11-02T17:25:25.745Z,55.50
2018-11-02T17:27:59.572Z,55.60
2018-11-02T17:30:33.663Z,55.50
2018-11-02T19:51:47.332Z,57.60
2018-11-02T19:54:21.298Z,57.10
2018-11-02T19:56:56.623Z,56.50
2018-11-02T20:02:09.008Z,55.20
2018-11-02T20:07:22.077Z,54.80
2018-11-02T20:09:59.041Z,54.10
2018-11-02T20:12:36.005Z,54.20
2018-11-02T20:15:14.997Z,54.20
2018-11-02T20:17:52.069Z,54.10
2018-11-02T20:23:05.067Z,54.20
2018-11-02T20:25:42.163Z,54.00
2018-11-02T20:28:20.679Z,54.00
2018-11-02T20:30:55.904Z,54.40
2018-11-02T20:33:33.059Z,54.40
2018-11-02T20:36:10.991Z,54.00
2018-11-02T20:38:49.737Z,54.20
2018-11-02T20:41:27.046Z,53.70
2018-11-02T20:44:04.038Z,53.60
2018-11-02T20:46:40.577Z,52.70
2018-11-02T20:49:17.996Z,52.50
2018-11-02T20:51:55.063Z,52.60
2018-11-02T20:54:32.074Z,51.80
2018-11-02T20:57:09.667Z,51.60
2018-11-02T20:59:44.929Z,51.50
2018-11-02T21:02:22.060Z,51.70
2018-11-02T21:04:59.072Z,51.20
2018-11-02T21:07:36.064Z,51.20
2018-11-02T21:10:15.140Z,51.00
2018-11-02T21:12:53.063Z,51.00
2018-11-02T21:15:30.056Z,51.00
2018-11-02T21:18:07.053Z,50.90
2018-11-02T21:20:44.808Z,50.80
2018-11-02T21:23:22.519Z,50.80
2018-11-02T21:26:00.075Z,51.60
2018-11-02T21:28:37.085Z,51.00
2018-11-02T21:31:16.672Z,50.60
2018-11-02T21:33:52.054Z,50.60
2018-11-02T21:36:29.073Z,50.40
2018-11-02T21:39:07.047Z,50.60
2018-11-02T21:41:44.657Z,50.60
2018-11-02T21:44:21.975Z,50.60
2018-11-02T21:52:11.085Z,50.00
2018-11-02T21:54:48.066Z,50.30
2018-11-02T21:57:26.667Z,50.40
2018-11-02T22:00:01.938Z,50.40
2018-11-02T22:02:39.063Z,50.80
2018-11-02T22:05:16.997Z,50.60
2018-11-02T22:07:55.041Z,50.50
2018-11-02T22:10:31.982Z,50.50
2018-11-02T22:13:08.986Z,50.50
2018-11-02T22:15:46.040Z,50.50
2018-11-02T22:18:23.012Z,50.60
2018-11-02T22:21:00.691Z,50.60
2018-11-02T22:24:33.596Z,50.60
2018-11-02T22:27:07.607Z,50.90
2018-11-02T22:29:41.301Z,50.90
2018-11-02T22:32:14.729Z,50.90
2018-11-02T22:34:48.528Z,51.00
2018-11-02T22:37:21.957Z,50.90
2018-11-02T22:39:55.785Z,50.90
2018-11-02T22:42:30.038Z,50.90
2018-11-02T22:45:04.285Z,50.60
2018-11-02T22:47:37.719Z,51.00
2018-11-02T22:50:12.274Z,51.00
2018-11-02T22:52:45.713Z,50.90
2018-11-02T22:55:19.382Z,50.90
2018-11-02T22:57:53.369Z,50.90
2018-11-02T23:00:26.836Z,50.90
2018-11-02T23:03:00.541Z,50.80
2018-11-02T23:05:34.338Z,50.60
2018-11-02T23:08:08.284Z,50.90
2018-11-02T23:10:41.740Z,51.00
2018-11-02T23:18:21.544Z,50.20
2018-11-02T23:20:55.141Z,50.90
2018-11-02T23:23:28.790Z,50.90
2018-11-02T23:26:02.504Z,50.90
2018-11-02T23:28:36.060Z,50.70
2018-11-02T23:31:09.612Z,51.00
2018-11-02T23:33:43.287Z,51.00
2018-11-02T23:36:16.723Z,51.00
2018-11-02T23:38:50.509Z,51.00
2018-11-02T23:41:24.057Z,51.00
2018-11-02T23:43:57.660Z,51.10
2018-11-02T23:46:31.287Z,51.00
2018-11-02T23:49:04.752Z,51.10
2018-11-02T23:51:38.775Z,51.10
2018-11-02T23:54:12.381Z,50.80
2018-11-02T23:56:45.807Z,50.70
2018-11-02T23:59:19.485Z,51.40
